createdAt,value
2022-11-18T00:00:13.913Z,998.7
2022-11-18T00:01:30.102Z,998.7
2022-11-18T00:02:46.300Z,998.6
2022-11-18T00:04:02.504Z,998.7
2022-11-18T00:05:18.000Z,998.7
2022-11-18T00:06:16.882Z,998.7
2022-11-18T00:07:51.076Z,998.8
2022-11-18T00:08:49.270Z,998.7
2022-11-18T00:10:23.000Z,998.7
2022-11-18T00:11:39.657Z,998.7
2022-11-18T00:12:50.000Z,998.6
2022-11-18T00:14:11.058Z,998.6
2022-11-18T00:15:27.000Z,998.6
2022-11-18T00:16:43.445Z,998.6
2022-11-18T00:17:59.639Z,998.5
2022-11-18T00:19:15.000Z,998.5
2022-11-18T00:20:32.026Z,998.5
2022-11-18T00:21:30.220Z,998.5
2022-11-18T00:23:04.413Z,998.6
2022-11-18T00:24:20.000Z,998.6
2022-11-18T00:25:36.801Z,998.6
2022-11-18T00:26:34.995Z,998.5
2022-11-18T00:28:09.000Z,998.6
2022-11-18T00:29:07.382Z,998.6
2022-11-18T00:30:41.575Z,998.7
2022-11-18T00:31:39.769Z,998.6
2022-11-18T00:33:13.963Z,998.7
2022-11-18T00:34:29.000Z,998.6
2022-11-18T00:35:45.000Z,998.7
2022-11-18T00:37:01.558Z,998.6
2022-11-18T00:38:17.000Z,998.7
2022-11-18T00:39:15.946Z,998.6
2022-11-18T00:40:50.000Z,998.6
2022-11-18T00:41:48.334Z,998.7
2022-11-18T00:43:22.000Z,998.7
2022-11-18T00:44:20.722Z,998.7
2022-11-18T00:45:54.000Z,998.8
2022-11-18T00:47:11.109Z,998.7
2022-11-18T00:48:27.000Z,998.7
2022-11-18T00:49:43.496Z,998.7
2022-11-18T00:50:59.691Z,998.7
2022-11-18T00:52:15.000Z,998.7
2022-11-18T00:53:32.000Z,998.7
2022-11-18T00:54:48.000Z,998.7
2022-11-18T00:56:04.465Z,998.8
2022-11-18T00:57:20.659Z,998.7
2022-11-18T00:58:36.000Z,998.7
2022-11-18T00:59:35.047Z,998.7
2022-11-18T01:01:09.241Z,998.7
2022-11-18T01:02:25.435Z,998.7
2022-11-18T01:03:41.629Z,998.7
2022-11-18T01:04:57.000Z,998.8
2022-11-18T01:06:14.016Z,998.7
2022-11-18T01:07:11.223Z,998.7
2022-11-18T01:08:45.416Z,998.7
2022-11-18T01:09:43.610Z,998.6
2022-11-18T01:11:17.000Z,998.7
2022-11-18T01:12:15.998Z,998.7
2022-11-18T01:13:50.191Z,998.7
2022-11-18T01:15:06.000Z,998.7
2022-11-18T01:16:22.579Z,998.7
2022-11-18T01:17:38.000Z,998.7
2022-11-18T01:18:54.966Z,998.7
2022-11-18T01:19:53.160Z,998.7
2022-11-18T01:21:27.353Z,998.7
2022-11-18T01:22:43.000Z,998.7
2022-11-18T01:23:59.741Z,998.7
2022-11-18T01:25:15.935Z,998.8
2022-11-18T01:26:32.000Z,998.7
2022-11-18T01:27:47.335Z,998.7
2022-11-18T01:29:03.529Z,998.7
2022-11-18T01:30:19.723Z,998.8
2022-11-18T01:31:35.000Z,998.8
2022-11-18T01:32:34.111Z,998.8
2022-11-18T01:34:08.305Z,998.8
2022-11-18T01:35:24.499Z,998.7
2022-11-18T01:36:40.692Z,998.9
2022-11-18T01:37:37.909Z,998.9
2022-11-18T01:39:12.103Z,998.8
2022-11-18T01:40:28.000Z,998.8
2022-11-18T01:41:44.000Z,998.8
2022-11-18T01:42:42.683Z,998.8
2022-11-18T01:44:16.877Z,998.9
2022-11-18T01:45:33.000Z,998.9
2022-11-18T01:46:49.264Z,998.9
2022-11-18T01:48:05.000Z,998.9
2022-11-18T01:49:21.000Z,998.9
2022-11-18T01:50:37.844Z,998.9
2022-11-18T01:51:54.000Z,998.9
2022-11-18T01:53:10.231Z,998.9
2022-11-18T01:54:26.000Z,998.8
2022-11-18T01:55:42.618Z,998.8
2022-11-18T01:56:58.000Z,998.9
2022-11-18T01:58:14.019Z,998.8
2022-11-18T01:59:12.212Z,998.8
2022-11-18T02:00:28.405Z,998.9
2022-11-18T02:02:02.000Z,998.8
2022-11-18T02:03:00.793Z,998.9
2022-11-18T02:05:51.180Z,998.8
2022-11-18T02:07:02.000Z,998.9
2022-11-18T02:08:05.568Z,998.9
2022-11-18T02:09:39.000Z,998.9
2022-11-18T02:10:37.955Z,998.8
2022-11-18T02:12:12.149Z,998.8
2022-11-18T02:13:28.342Z,998.9
2022-11-18T02:14:44.000Z,998.9
2022-11-18T02:16:00.000Z,998.9
2022-11-18T02:17:16.000Z,998.9
2022-11-18T02:18:33.000Z,998.8
2022-11-18T02:19:49.310Z,998.9
2022-11-18T02:20:47.504Z,998.9
2022-11-18T02:22:21.697Z,998.9
2022-11-18T02:23:19.891Z,998.9
2022-11-18T02:24:54.000Z,998.9
2022-11-18T02:25:52.278Z,998.9
2022-11-18T02:27:26.473Z,998.9
2022-11-18T02:28:42.668Z,998.9
2022-11-18T02:29:40.860Z,999
2022-11-18T02:31:15.053Z,999
2022-11-18T02:32:31.247Z,999
2022-11-18T02:33:29.440Z,999
2022-11-18T02:35:03.000Z,998.8
2022-11-18T02:36:01.827Z,998.8
2022-11-18T02:37:36.000Z,998.8
2022-11-18T02:38:33.228Z,998.9
2022-11-18T02:40:07.422Z,998.8
2022-11-18T02:41:23.615Z,998.9
2022-11-18T02:42:39.000Z,998.9
2022-11-18T02:43:56.000Z,998.9
2022-11-18T02:44:54.196Z,998.9
2022-11-18T02:46:10.389Z,998.9
2022-11-18T02:47:44.000Z,998.9
2022-11-18T02:48:55.000Z,998.9
2022-11-18T02:50:16.969Z,998.9
2022-11-18T02:51:33.177Z,998.9
2022-11-18T02:52:31.356Z,998.9
2022-11-18T02:53:47.550Z,998.9
2022-11-18T02:55:21.000Z,998.9
2022-11-18T02:56:37.000Z,998.9
2022-11-18T02:57:54.000Z,998.9
2022-11-18T02:58:51.336Z,999
2022-11-18T03:00:25.532Z,998.9
2022-11-18T03:01:23.725Z,998.9
2022-11-18T03:02:57.000Z,999
2022-11-18T03:04:14.000Z,999
2022-11-18T03:05:30.305Z,998.9
2022-11-18T03:06:28.499Z,999
2022-11-18T03:08:02.000Z,999
2022-11-18T03:09:18.886Z,998.9
2022-11-18T03:10:35.000Z,998.9
2022-11-18T03:11:51.273Z,998.9
2022-11-18T03:13:07.467Z,998.9
2022-11-18T03:14:05.660Z,998.9
2022-11-18T03:15:39.853Z,998.8
2022-11-18T03:16:56.000Z,998.9
2022-11-18T03:18:12.240Z,998.9
2022-11-18T03:19:10.434Z,998.9
2022-11-18T03:20:39.000Z,998.9
2022-11-18T03:22:00.000Z,998.8
2022-11-18T03:23:17.015Z,998.9
2022-11-18T03:24:32.000Z,998.8
2022-11-18T03:25:48.415Z,998.9
2022-11-18T03:26:46.609Z,999
2022-11-18T03:28:20.000Z,998.9
2022-11-18T03:29:37.000Z,998.9
2022-11-18T03:30:53.000Z,999
2022-11-18T03:32:09.000Z,999
2022-11-18T03:33:25.575Z,999.1
2022-11-18T03:34:41.769Z,999.1
2022-11-18T03:35:57.962Z,999.1
2022-11-18T03:36:56.156Z,999.1
2022-11-18T03:38:30.000Z,999.1
2022-11-18T03:39:28.543Z,999.2
2022-11-18T03:41:02.736Z,999.1
2022-11-18T03:42:18.000Z,999.1
2022-11-18T03:43:35.000Z,999.1
2022-11-18T03:44:32.329Z,999.1
2022-11-18T03:46:06.000Z,999
2022-11-18T03:47:22.717Z,999.2
2022-11-18T03:48:38.000Z,999.1
2022-11-18T03:49:37.104Z,999.1
2022-11-18T03:51:11.000Z,999.1
2022-11-18T03:52:27.491Z,999.2
2022-11-18T03:53:43.000Z,999.1
2022-11-18T03:54:59.879Z,999.2
2022-11-18T03:56:16.072Z,999.2
2022-11-18T03:57:14.266Z,999.2
2022-11-18T03:58:48.000Z,999.3
2022-11-18T04:00:04.653Z,999.3
2022-11-18T04:01:20.846Z,999.3
2022-11-18T04:02:36.075Z,999.2
2022-11-18T04:03:52.000Z,999.3
2022-11-18T04:04:50.441Z,999.2
2022-11-18T04:06:24.634Z,999.3
2022-11-18T04:07:40.827Z,999.4
2022-11-18T04:08:57.021Z,999.3
2022-11-18T04:09:55.214Z,999.4
2022-11-18T04:11:29.408Z,999.3
2022-11-18T04:12:45.601Z,999.3
2022-11-18T04:14:01.000Z,999.3
2022-11-18T04:14:59.988Z,999.4
2022-11-18T04:16:34.000Z,999.4
2022-11-18T04:17:50.000Z,999.4
2022-11-18T04:19:06.568Z,999.5
2022-11-18T04:20:04.762Z,999.3
2022-11-18T04:21:38.000Z,999.4
2022-11-18T04:22:37.149Z,999.4
2022-11-18T04:24:11.342Z,999.4
2022-11-18T04:25:26.000Z,999.4
2022-11-18T04:26:42.000Z,999.4
2022-11-18T04:27:40.937Z,999.5
2022-11-18T04:29:15.130Z,999.4
2022-11-18T04:30:13.324Z,999.4
2022-11-18T04:31:29.517Z,999.4
2022-11-18T04:32:45.710Z,999.4
2022-11-18T04:34:19.000Z,999.4
2022-11-18T04:35:18.097Z,999.5
2022-11-18T04:36:52.291Z,999.5
2022-11-18T04:38:08.485Z,999.4
2022-11-18T04:39:24.000Z,999.6
2022-11-18T04:40:40.000Z,999.5
2022-11-18T04:41:57.000Z,999.5
2022-11-18T04:43:13.000Z,999.6
2022-11-18T04:44:29.452Z,999.6
2022-11-18T04:45:45.000Z,999.6
2022-11-18T04:47:01.840Z,999.6
2022-11-18T04:48:18.000Z,999.7
2022-11-18T04:49:34.000Z,999.7
2022-11-18T04:50:50.000Z,999.7
2022-11-18T04:52:06.614Z,999.8
2022-11-18T04:53:22.000Z,999.6
2022-11-18T04:54:38.000Z,999.7
2022-11-18T04:55:54.207Z,999.8
2022-11-18T04:57:10.000Z,999.7
2022-11-18T04:58:26.000Z,999.9
2022-11-18T04:59:42.788Z,999.9
2022-11-18T05:00:58.981Z,999.8
2022-11-18T05:02:15.000Z,999.8
2022-11-18T05:03:31.368Z,999.8
2022-11-18T05:04:47.561Z,999.8
2022-11-18T05:05:45.755Z,999.8
2022-11-18T05:07:19.000Z,999.8
2022-11-18T05:08:36.000Z,999.9
2022-11-18T05:09:52.335Z,999.8
2022-11-18T05:11:08.000Z,999.9
2022-11-18T05:12:24.722Z,999.9
2022-11-18T05:13:22.916Z,999.9
2022-11-18T05:14:57.000Z,999.9
2022-11-18T05:16:13.000Z,1000
2022-11-18T05:17:29.000Z,999.9
2022-11-18T05:18:27.690Z,999.9
2022-11-18T05:20:01.000Z,1000
2022-11-18T05:21:00.077Z,999.9
2022-11-18T05:22:34.270Z,999.9
2022-11-18T05:23:32.463Z,999.9
2022-11-18T05:25:06.000Z,999.8
2022-11-18T05:26:04.971Z,999.9
2022-11-18T05:27:39.165Z,999.9
2022-11-18T05:28:55.000Z,999.9
2022-11-18T05:30:11.000Z,999.9
2022-11-18T05:31:27.000Z,999.9
2022-11-18T05:32:39.000Z,999.9
2022-11-18T05:34:00.000Z,1000
2022-11-18T05:35:16.326Z,1000
2022-11-18T05:36:14.520Z,1000
2022-11-18T05:37:48.000Z,1000
2022-11-18T05:39:04.915Z,1000
2022-11-18T05:40:21.101Z,1000
2022-11-18T05:41:37.000Z,1000
2022-11-18T05:42:53.488Z,1000
2022-11-18T05:44:09.000Z,1000
2022-11-18T05:45:25.000Z,1000.1
2022-11-18T05:46:23.082Z,1000.1
2022-11-18T05:47:57.275Z,1000.2
2022-11-18T05:48:55.469Z,1000.1
2022-11-18T05:50:29.000Z,1000.1
2022-11-18T05:51:27.856Z,1000.2
2022-11-18T05:53:02.000Z,1000.3
2022-11-18T05:54:18.000Z,1000.3
2022-11-18T05:55:34.436Z,1000.3
2022-11-18T05:56:49.671Z,1000.3
2022-11-18T05:58:05.000Z,1000.3
2022-11-18T05:59:04.040Z,1000.4
2022-11-18T06:00:33.000Z,1000.3
2022-11-18T06:01:54.427Z,1000.3
2022-11-18T06:02:52.621Z,1000.3
2022-11-18T06:04:26.000Z,1000.4
2022-11-18T06:05:43.008Z,1000.4
2022-11-18T06:06:59.000Z,1000.5
2022-11-18T06:08:15.395Z,1000.4
2022-11-18T06:09:31.000Z,1000.4
2022-11-18T06:10:47.000Z,1000.4
2022-11-18T06:11:45.976Z,1000.4
2022-11-18T06:13:20.000Z,1000.5
2022-11-18T06:14:36.000Z,1000.5
2022-11-18T06:15:52.000Z,1000.4
2022-11-18T06:16:50.750Z,1000.5
2022-11-18T06:18:24.000Z,1000.5
2022-11-18T06:19:40.150Z,1000.5
2022-11-18T06:20:56.344Z,1000.5
2022-11-18T06:21:54.537Z,1000.5
2022-11-18T06:23:28.731Z,1000.5
2022-11-18T06:24:26.924Z,1000.5
2022-11-18T06:26:01.000Z,1000.6
2022-11-18T06:26:59.311Z,1000.6
2022-11-18T06:28:33.000Z,1000.7
2022-11-18T06:29:31.698Z,1000.6
2022-11-18T06:31:05.000Z,1000.7
2022-11-18T06:32:22.085Z,1000.6
2022-11-18T06:33:38.000Z,1000.5
2022-11-18T06:34:36.472Z,1000.6
2022-11-18T06:36:10.665Z,1000.7
2022-11-18T06:37:08.859Z,1000.6
2022-11-18T06:38:43.000Z,1000.6
2022-11-18T06:39:59.246Z,1000.6
2022-11-18T06:41:15.000Z,1000.8
2022-11-18T06:42:13.632Z,1000.7
2022-11-18T06:43:47.000Z,1000.8
2022-11-18T06:45:04.000Z,1000.8
2022-11-18T06:46:20.213Z,1000.8
2022-11-18T06:47:18.408Z,1000.8
2022-11-18T06:48:52.000Z,1000.8
2022-11-18T06:49:50.797Z,1000.8
2022-11-18T06:51:24.993Z,1000.9
2022-11-18T06:52:23.187Z,1001
2022-11-18T06:53:56.000Z,1000.9
2022-11-18T06:54:54.590Z,1000.9
2022-11-18T06:56:10.786Z,1000.9
2022-11-18T06:57:44.000Z,1000.9
2022-11-18T06:59:01.000Z,1001
2022-11-18T06:59:59.370Z,1001
2022-11-18T07:01:33.000Z,1000.9
2022-11-18T07:02:31.760Z,1001.1
2022-11-18T07:03:47.955Z,1001.1
2022-11-18T07:05:04.150Z,1001.1
2022-11-18T07:06:38.000Z,1001.1
2022-11-18T07:07:49.000Z,1001
2022-11-18T07:08:52.736Z,1001
2022-11-18T07:10:27.052Z,1001
2022-11-18T07:11:43.247Z,1001
2022-11-18T07:12:59.454Z,1001
2022-11-18T07:14:15.638Z,1001
2022-11-18T07:15:13.834Z,1001
2022-11-18T07:16:48.000Z,1001.1
2022-11-18T07:18:04.000Z,1001
2022-11-18T07:19:20.000Z,1001.1
2022-11-18T07:20:18.615Z,1001.1
2022-11-18T07:21:52.000Z,1001.2
2022-11-18T07:23:09.006Z,1001.1
2022-11-18T07:24:25.202Z,1001.2
2022-11-18T07:25:23.397Z,1001.2
2022-11-18T07:26:57.000Z,1001.3
2022-11-18T07:27:55.788Z,1001.2
2022-11-18T07:29:29.000Z,1001.3
2022-11-18T07:30:28.179Z,1001.2
2022-11-18T07:32:02.000Z,1001.2
2022-11-18T07:33:00.570Z,1001.4
2022-11-18T07:34:34.000Z,1001.3
2022-11-18T07:35:50.961Z,1001.3
2022-11-18T07:37:07.157Z,1001.4
2022-11-18T07:38:23.352Z,1001.3
2022-11-18T07:39:39.000Z,1001.3
2022-11-18T07:40:37.743Z,1001.4
2022-11-18T07:42:11.939Z,1001.4
2022-11-18T07:43:09.147Z,1001.3
2022-11-18T07:44:43.000Z,1001.4
2022-11-18T07:45:59.538Z,1001.4
2022-11-18T07:47:15.000Z,1001.4
2022-11-18T07:48:31.929Z,1001.3
2022-11-18T07:49:48.000Z,1001.4
2022-11-18T07:50:46.320Z,1001.3
2022-11-18T07:52:20.515Z,1001.2
2022-11-18T07:53:18.711Z,1001.4
2022-11-18T07:54:52.906Z,1001.5
2022-11-18T07:56:09.101Z,1001.5
2022-11-18T07:57:25.000Z,1001.5
2022-11-18T07:58:41.000Z,1001.5
2022-11-18T07:59:57.000Z,1001.5
2022-11-18T08:01:13.000Z,1001.4
2022-11-18T08:02:30.000Z,1001.5
2022-11-18T08:03:45.296Z,1001.5
2022-11-18T08:05:01.000Z,1001.5
2022-11-18T08:05:59.678Z,1001.6
2022-11-18T08:07:33.000Z,1001.6
2022-11-18T08:08:32.069Z,1001.7
2022-11-18T08:10:01.000Z,1001.6
2022-11-18T08:11:22.460Z,1001.5
2022-11-18T08:12:38.656Z,1001.5
2022-11-18T08:13:54.000Z,1001.6
2022-11-18T08:15:11.047Z,1001.7
2022-11-18T08:16:09.242Z,1001.4
2022-11-18T08:17:43.000Z,1001.6
2022-11-18T08:18:59.000Z,1001.6
2022-11-18T08:20:15.829Z,1001.7
2022-11-18T08:21:13.037Z,1001.7
2022-11-18T08:22:47.233Z,1001.8
2022-11-18T08:23:45.428Z,1001.7
2022-11-18T08:25:19.624Z,1001.6
2022-11-18T08:26:35.819Z,1001.7
2022-11-18T08:27:52.000Z,1001.7
2022-11-18T08:29:08.210Z,1001.7
2022-11-18T08:30:24.000Z,1001.7
2022-11-18T08:31:40.000Z,1001.7
2022-11-18T08:32:56.796Z,1001.7
2022-11-18T08:33:54.991Z,1001.7
2022-11-18T08:35:29.000Z,1001.6
2022-11-18T08:36:45.394Z,1001.8
2022-11-18T08:38:01.578Z,1001.8
2022-11-18T08:39:17.773Z,1001.6
2022-11-18T08:40:33.000Z,1001.8
2022-11-18T08:41:49.177Z,1001.8
2022-11-18T08:43:05.000Z,1001.9
2022-11-18T08:44:03.568Z,1001.9
2022-11-18T08:45:37.000Z,1002
2022-11-18T08:46:35.959Z,1002
2022-11-18T08:48:10.155Z,1002.1
2022-11-18T08:49:26.350Z,1002
2022-11-18T08:50:24.546Z,1002
2022-11-18T08:51:58.741Z,1002
2022-11-18T08:53:14.000Z,1002
2022-11-18T08:54:13.132Z,1002
2022-11-18T08:55:47.000Z,1002.2
2022-11-18T08:56:45.522Z,1002
2022-11-18T08:58:19.000Z,1002.1
2022-11-18T08:59:17.913Z,1002.1
2022-11-18T09:00:52.109Z,1002.1
2022-11-18T09:02:08.000Z,1002.1
2022-11-18T09:03:24.500Z,1002.1
2022-11-18T09:04:40.695Z,1002.2
2022-11-18T09:05:38.891Z,1002.3
2022-11-18T09:06:55.086Z,1002.3
2022-11-18T09:08:29.000Z,1002.1
2022-11-18T09:09:27.477Z,1002.3
2022-11-18T09:11:01.000Z,1002.3
2022-11-18T09:11:59.868Z,1002.4
2022-11-18T09:13:34.000Z,1002.3
2022-11-18T09:14:50.000Z,1002.4
2022-11-18T09:16:06.000Z,1002.5
2022-11-18T09:17:22.650Z,1002.5
2022-11-18T09:18:38.000Z,1002.4
2022-11-18T09:19:36.054Z,1002.4
2022-11-18T09:21:10.250Z,1002.5
2022-11-18T09:22:08.445Z,1002.6
2022-11-18T09:23:42.641Z,1002.6
2022-11-18T09:24:58.000Z,1002.6
2022-11-18T09:26:15.000Z,1002.5
2022-11-18T09:27:13.227Z,1002.6
2022-11-18T09:28:47.000Z,1002.7
2022-11-18T09:30:03.000Z,1002.8
2022-11-18T09:31:19.813Z,1002.7
2022-11-18T09:32:36.000Z,1002.8
2022-11-18T09:33:52.000Z,1002.9
2022-11-18T09:34:50.400Z,1002.8
2022-11-18T09:36:24.595Z,1002.8
2022-11-18T09:37:39.814Z,1002.7
2022-11-18T09:38:55.999Z,1002.7
2022-11-18T09:40:12.223Z,1002.7
2022-11-18T09:41:23.000Z,1002.7
2022-11-18T09:42:44.586Z,1002.7
2022-11-18T09:44:00.781Z,1002.8
2022-11-18T09:45:16.993Z,1002.8
2022-11-18T09:46:33.000Z,1002.7
2022-11-18T09:47:49.000Z,1002.8
2022-11-18T09:49:05.563Z,1002.7
2022-11-18T09:50:03.758Z,1002.8
2022-11-18T09:51:37.000Z,1002.9
2022-11-18T09:52:36.149Z,1002.8
2022-11-18T09:54:10.000Z,1002.8
2022-11-18T09:55:26.540Z,1002.8
2022-11-18T09:56:42.736Z,1002.9
2022-11-18T09:57:40.931Z,1002.9
2022-11-18T09:59:15.000Z,1002.9
2022-11-18T10:00:13.322Z,1003
2022-11-18T10:01:47.000Z,1002.9
2022-11-18T10:02:58.000Z,1003
2022-11-18T10:04:19.000Z,1003
2022-11-18T10:05:36.000Z,1003
2022-11-18T10:06:52.300Z,1003
2022-11-18T10:08:08.495Z,1002.9
2022-11-18T10:09:24.000Z,1003.1
2022-11-18T10:10:22.886Z,1003
2022-11-18T10:11:57.000Z,1003.1
2022-11-18T10:12:55.404Z,1003
2022-11-18T10:14:29.000Z,1003
2022-11-18T10:15:45.807Z,1003
2022-11-18T10:17:02.000Z,1003.1
2022-11-18T10:18:18.000Z,1003.1
2022-11-18T10:19:34.000Z,1003.1
2022-11-18T10:20:50.576Z,1003.1
2022-11-18T10:22:06.000Z,1003.1
2022-11-18T10:23:22.000Z,1003
2022-11-18T10:24:39.163Z,1003.1
2022-11-18T10:25:55.382Z,1003.1
2022-11-18T10:27:11.000Z,1003
2022-11-18T10:28:09.749Z,1003.1
2022-11-18T10:29:42.000Z,1003.2
2022-11-18T10:30:41.153Z,1003.1
2022-11-18T10:32:15.000Z,1003.1
2022-11-18T10:33:31.544Z,1003
2022-11-18T10:34:47.000Z,1003
2022-11-18T10:36:03.953Z,1003.2
2022-11-18T10:37:20.000Z,1003.2
2022-11-18T10:38:36.000Z,1003.2
2022-11-18T10:39:52.522Z,1003.2
2022-11-18T10:41:03.000Z,1003.2
2022-11-18T10:42:24.000Z,1003.2
2022-11-18T10:43:41.121Z,1003.1
2022-11-18T10:44:57.000Z,1003.2
2022-11-18T10:46:13.499Z,1003.2
2022-11-18T10:47:29.695Z,1003.2
2022-11-18T10:48:27.890Z,1003.1
2022-11-18T10:50:01.101Z,1003.2
2022-11-18T10:50:59.296Z,1003.3
2022-11-18T10:52:33.000Z,1003.4
2022-11-18T10:53:49.687Z,1003.4
2022-11-18T10:55:05.883Z,1003.3
2022-11-18T10:56:22.000Z,1003.3
2022-11-18T10:57:38.000Z,1003.4
2022-11-18T10:58:54.000Z,1003.3
2022-11-18T11:00:10.000Z,1003.3
2022-11-18T11:01:08.859Z,1003.4
2022-11-18T11:02:43.055Z,1003.4
2022-11-18T11:03:41.250Z,1003.4
2022-11-18T11:05:15.000Z,1003.4
2022-11-18T11:06:13.641Z,1003.5
2022-11-18T11:07:47.000Z,1003.3
2022-11-18T11:08:46.032Z,1003.3
2022-11-18T11:10:20.228Z,1003.4
2022-11-18T11:11:36.423Z,1003.5
2022-11-18T11:12:52.000Z,1003.5
2022-11-18T11:14:04.000Z,1003.4
2022-11-18T11:15:25.000Z,1003.5
2022-11-18T11:16:23.206Z,1003.5
2022-11-18T11:17:57.403Z,1003.5
2022-11-18T11:18:55.598Z,1003.5
2022-11-18T11:20:29.794Z,1003.3
2022-11-18T11:21:27.989Z,1003.5
2022-11-18T11:23:02.186Z,1003.4
2022-11-18T11:24:18.381Z,1003.4
2022-11-18T11:25:34.000Z,1003.3
2022-11-18T11:26:32.773Z,1003.4
2022-11-18T11:28:06.969Z,1003.4
2022-11-18T11:29:05.164Z,1003.3
2022-11-18T11:30:39.000Z,1003.4
2022-11-18T11:31:55.000Z,1003.5
2022-11-18T11:33:11.000Z,1003.3
2022-11-18T11:34:09.947Z,1003.5
2022-11-18T11:35:44.143Z,1003.4
2022-11-18T11:36:59.352Z,1003.5
2022-11-18T11:38:15.000Z,1003.5
2022-11-18T11:39:31.761Z,1003.4
2022-11-18T11:40:47.939Z,1003.5
2022-11-18T11:41:46.134Z,1003.5
2022-11-18T11:43:20.330Z,1003.5
2022-11-18T11:44:18.525Z,1003.5
2022-11-18T11:45:52.000Z,1003.4
2022-11-18T11:47:08.000Z,1003.5
2022-11-18T11:48:25.000Z,1003.6
2022-11-18T11:49:41.308Z,1003.5
2022-11-18T11:50:57.000Z,1003.4
2022-11-18T11:52:13.710Z,1003.5
2022-11-18T11:53:28.000Z,1003.5
2022-11-18T11:54:27.106Z,1003.4
2022-11-18T11:56:01.303Z,1003.5
2022-11-18T11:56:59.499Z,1003.5
2022-11-18T11:58:33.000Z,1003.6
2022-11-18T11:59:31.890Z,1003.5
2022-11-18T12:00:48.086Z,1003.6
2022-11-18T12:02:22.000Z,1003.5
2022-11-18T12:03:38.477Z,1003.5
2022-11-18T12:04:36.672Z,1003.5
2022-11-18T12:06:10.000Z,1003.6
2022-11-18T12:07:09.064Z,1003.6
2022-11-18T12:08:43.000Z,1003.6
2022-11-18T12:09:41.455Z,1003.7
2022-11-18T12:11:15.000Z,1003.6
2022-11-18T12:12:31.846Z,1003.6
2022-11-18T12:13:48.041Z,1003.6
2022-11-18T12:15:04.236Z,1003.5
2022-11-18T12:16:20.000Z,1003.6
2022-11-18T12:17:36.655Z,1003.7
2022-11-18T12:18:52.000Z,1003.7
2022-11-18T12:19:51.141Z,1003.7
2022-11-18T12:21:20.000Z,1003.7
2022-11-18T12:22:41.533Z,1003.7
2022-11-18T12:23:39.729Z,1003.8
2022-11-18T12:24:55.925Z,1003.9
2022-11-18T12:26:30.000Z,1003.9
2022-11-18T12:27:46.316Z,1003.8
2022-11-18T12:29:02.000Z,1003.9
2022-11-18T12:30:18.000Z,1003.9
2022-11-18T12:31:34.000Z,1003.9
2022-11-18T12:32:33.098Z,1003.9
2022-11-18T12:34:07.000Z,1004
2022-11-18T12:35:05.489Z,1003.9
2022-11-18T12:36:39.000Z,1004
2022-11-18T12:37:37.880Z,1003.9
2022-11-18T12:38:54.076Z,1003.9
2022-11-18T12:40:28.271Z,1004
2022-11-18T12:41:44.467Z,1004
2022-11-18T12:42:42.662Z,1003.9
2022-11-18T12:44:16.000Z,1003.9
2022-11-18T12:45:14.067Z,1003.9
2022-11-18T12:46:43.000Z,1003.9
2022-11-18T12:47:46.459Z,1003.9
2022-11-18T12:49:20.000Z,1003.9
2022-11-18T12:50:36.851Z,1004
2022-11-18T12:51:53.047Z,1003.9
2022-11-18T12:53:09.242Z,1003.9
2022-11-18T12:54:25.438Z,1003.9
2022-11-18T12:55:23.633Z,1004
2022-11-18T12:56:57.829Z,1004
2022-11-18T12:57:56.025Z,1004
2022-11-18T12:59:30.222Z,1004.1
2022-11-18T13:00:46.433Z,1004
2022-11-18T13:02:02.000Z,1004
2022-11-18T13:03:00.808Z,1004.1
2022-11-18T13:04:35.000Z,1004
2022-11-18T13:05:51.200Z,1004
2022-11-18T13:07:07.396Z,1004.1
2022-11-18T13:08:05.592Z,1004
2022-11-18T13:09:38.000Z,1004
2022-11-18T13:10:37.000Z,1004.1
2022-11-18T13:12:11.000Z,1004.1
2022-11-18T13:13:27.000Z,1004.1
2022-11-18T13:14:25.588Z,1004.1
2022-11-18T13:15:41.783Z,1004.1
2022-11-18T13:17:15.000Z,1004.1
2022-11-18T13:18:32.000Z,1004.2
2022-11-18T13:19:48.371Z,1004.2
2022-11-18T13:20:46.568Z,1004.2
2022-11-18T13:22:02.764Z,1004.1
2022-11-18T13:23:36.000Z,1004.2
2022-11-18T13:24:35.155Z,1004.2
2022-11-18T13:26:09.365Z,1004.2
2022-11-18T13:27:25.000Z,1004.2
2022-11-18T13:28:41.767Z,1004.2
2022-11-18T13:29:57.938Z,1004.2
2022-11-18T13:31:14.000Z,1004.2
2022-11-18T13:32:30.000Z,1004.3
2022-11-18T13:33:28.526Z,1004.2
2022-11-18T13:35:02.000Z,1004.2
2022-11-18T13:36:00.916Z,1004.3
2022-11-18T13:37:35.112Z,1004.3
2022-11-18T13:38:51.307Z,1004.3
2022-11-18T13:40:07.000Z,1004.4
2022-11-18T13:41:05.699Z,1004.3
2022-11-18T13:42:39.894Z,1004.3
2022-11-18T13:43:56.000Z,1004.3
2022-11-18T13:45:12.000Z,1004.2
2022-11-18T13:46:10.480Z,1004.3
2022-11-18T13:47:44.000Z,1004.2
2022-11-18T13:48:42.871Z,1004.2
2022-11-18T13:50:17.000Z,1004.2
2022-11-18T13:51:33.000Z,1004.3
2022-11-18T13:52:49.460Z,1004.3
2022-11-18T13:53:46.672Z,1004.3
2022-11-18T13:55:02.868Z,1004.3
2022-11-18T13:56:37.000Z,1004.3
2022-11-18T13:57:53.259Z,1004.4
2022-11-18T13:59:09.000Z,1004.4
2022-11-18T14:00:25.650Z,1004.4
2022-11-18T14:01:23.846Z,1004.4
2022-11-18T14:02:58.000Z,1004.4
2022-11-18T14:04:14.253Z,1004.5
2022-11-18T14:05:30.434Z,1004.5
2022-11-18T14:06:28.630Z,1004.4
2022-11-18T14:08:02.000Z,1004.5
2022-11-18T14:09:19.000Z,1004.5
2022-11-18T14:10:35.000Z,1004.5
2022-11-18T14:11:33.413Z,1004.5
2022-11-18T14:13:07.000Z,1004.5
2022-11-18T14:14:05.805Z,1004.5
2022-11-18T14:15:40.000Z,1004.6
2022-11-18T14:16:38.197Z,1004.6
2022-11-18T14:18:12.393Z,1004.5
2022-11-18T14:19:28.000Z,1004.5
2022-11-18T14:20:43.000Z,1004.6
2022-11-18T14:21:59.993Z,1004.5
2022-11-18T14:23:16.000Z,1004.6
2022-11-18T14:24:14.385Z,1004.7
2022-11-18T14:25:30.581Z,1004.6
2022-11-18T14:27:04.791Z,1004.7
2022-11-18T14:28:20.000Z,1004.8
2022-11-18T14:29:37.181Z,1004.7
2022-11-18T14:30:34.385Z,1004.8
2022-11-18T14:31:50.580Z,1004.8
2022-11-18T14:33:24.000Z,1004.8
2022-11-18T14:34:40.972Z,1004.8
2022-11-18T14:35:57.000Z,1004.8
2022-11-18T14:36:55.365Z,1004.6
2022-11-18T14:38:29.561Z,1004.8
2022-11-18T14:39:27.756Z,1004.9
2022-11-18T14:41:01.000Z,1004.8
2022-11-18T14:42:00.147Z,1004.8
2022-11-18T14:43:34.343Z,1004.8
2022-11-18T14:44:32.539Z,1005
2022-11-18T14:46:06.000Z,1004.9
2022-11-18T14:47:22.931Z,1004.8
2022-11-18T14:48:21.127Z,1004.9
2022-11-18T14:49:54.335Z,1005
2022-11-18T14:51:10.000Z,1004.9
2022-11-18T14:52:08.728Z,1005
2022-11-18T14:53:42.924Z,1004.9
2022-11-18T14:54:59.119Z,1004.9
2022-11-18T14:56:15.315Z,1004.9
2022-11-18T14:57:13.510Z,1005
2022-11-18T14:58:47.705Z,1004.9
2022-11-18T15:00:03.901Z,1005
2022-11-18T15:01:20.000Z,1005
2022-11-18T15:02:18.292Z,1005
2022-11-18T15:03:52.000Z,1005
2022-11-18T15:05:08.000Z,1005
2022-11-18T15:06:24.000Z,1005.1
2022-11-18T15:07:23.077Z,1005.1
2022-11-18T15:08:57.000Z,1005
2022-11-18T15:09:55.468Z,1005.1
2022-11-18T15:11:29.000Z,1005.1
2022-11-18T15:12:45.000Z,1005.1
2022-11-18T15:14:02.000Z,1005.2
2022-11-18T15:15:18.265Z,1005.2
2022-11-18T15:16:34.000Z,1005.3
2022-11-18T15:17:32.642Z,1005.3
2022-11-18T15:19:06.838Z,1005.3
2022-11-18T15:20:22.070Z,1005.3
2022-11-18T15:21:38.243Z,1005.3
2022-11-18T15:22:36.438Z,1005.3
2022-11-18T15:24:10.000Z,1005.3
2022-11-18T15:25:26.000Z,1005.3
2022-11-18T15:26:43.000Z,1005.3
2022-11-18T15:27:59.000Z,1005.2
2022-11-18T15:29:15.418Z,1005.3
2022-11-18T15:30:13.614Z,1005.3
2022-11-18T15:31:47.810Z,1005.3
2022-11-18T15:32:46.005Z,1005.3
2022-11-18T15:34:20.000Z,1005.4
2022-11-18T15:35:18.396Z,1005.4
2022-11-18T15:36:52.000Z,1005.5
2022-11-18T15:38:08.788Z,1005.4
2022-11-18T15:39:24.000Z,1005.4
2022-11-18T15:40:41.180Z,1005.5
2022-11-18T15:41:57.000Z,1005.5
2022-11-18T15:42:54.585Z,1005.5
2022-11-18T15:44:28.781Z,1005.5
2022-11-18T15:45:26.976Z,1005.5
2022-11-18T15:47:01.172Z,1005.6
2022-11-18T15:47:59.367Z,1005.6
2022-11-18T15:49:33.000Z,1005.6
2022-11-18T15:50:49.758Z,1005.6
2022-11-18T15:52:05.954Z,1005.7
2022-11-18T15:53:04.149Z,1005.7
2022-11-18T15:54:38.000Z,1005.6
2022-11-18T15:55:54.559Z,1005.7
2022-11-18T15:56:52.736Z,1005.6
2022-11-18T15:58:26.000Z,1005.7
2022-11-18T15:59:43.000Z,1005.7
2022-11-18T16:00:41.322Z,1005.7
2022-11-18T16:02:15.000Z,1005.7
2022-11-18T16:03:31.714Z,1005.8
2022-11-18T16:04:47.000Z,1005.7
2022-11-18T16:05:45.118Z,1005.7
2022-11-18T16:07:19.000Z,1005.7